ERF weather

Erfurt Airport
Erfurt, Thuringia, Germany

Public forecast

Using degrees Celsius for public forecast. Weather courtesy of forecast.io.

Current aviation weather report (METAR) for Erfurt Airport

Retrieved 2020/06/05 02:50 UTC (29 minutes ago):

EDDE 050250Z 26013KT 9999 SCT030 10/08 Q0995

Aviation forecast (TAF) for Erfurt Airport

Retrieved 2020-06-05 00:27 UTC (3 hours ago):

TAF TAF EDDE 042300Z 0500/0524 28008KT 9999 SCT030 BECMG 0510/0512 24013KT BECMG 0513/0515 23015G30KT TEMPO 0515/0521 22020G35KT SHRA BKN020CB BECMG 0520/0522 24013KT